Salt Lake City, Utah
Traffic Map
Current Weather Conditions
Salt Lake City, Utah
Broken Clouds
Broken Clouds
79°
Feels Like: 79°
Wind Chill: 79° Ceiling: 14000
Heat Index: 79° Visibility: 10mi
Dew Point: 47° Wind: 12mph
Humidity: 32% Direction: 340° (NNW)
Pressure: 30in Gusts: 0mph
Raw Report DataKSLC 301753Z 34010KT 10SM SCT110 BKN140 BKN230 26/08 A3000 RMK AO2 SLP095 T02610083 10278 20239 51004
Traffic Incident Summary
Active as of:
Severity:
Category:
InformationThere was an issue retrieving the traffic information for this location. Please try a different location or try again shortly.
Advertisements
Track Severe Weather on mobile